Time;durP1;ratioP1;P1;durP2;ratioP2;P2;SDS_P1;SDS_P2;PMS_P1;PMS_P2;Temp;Humidity;BMP_temperature;BMP_pressure;BME280_temperature;BME280_humidity;BME280_pressure;Samples;Min_cycle;Max_cycle;Signal;HPM_P1;HPM_P2
2020/12/19 00:01:54;;;;;;;27.20;14.02;;;5.30;95.10;;;;;;4986361;28;20475;-88
2020/12/19 00:04:19;;;;;;;24.08;14.55;;;5.30;95.20;;;;;;4991261;28;20038;-88
2020/12/19 00:06:45;;;;;;;23.02;14.02;;;5.30;95.20;;;;;;4993282;28;20430;-88
2020/12/19 00:09:11;;;;;;;26.90;15.90;;;5.30;95.30;;;;;;4992692;28;20058;-88
2020/12/19 00:11:37;;;;;;;23.42;14.48;;;5.30;95.20;;;;;;4993315;28;20141;-88
2020/12/19 00:14:03;;;;;;;27.02;14.63;;;5.30;95.20;;;;;;4991766;28;20444;-88
2020/12/19 00:16:29;;;;;;;28.55;15.20;;;5.30;95.30;;;;;;4996505;28;20026;-88
2020/12/19 00:18:55;;;;;;;27.35;15.15;;;5.30;95.40;;;;;;4998848;28;20037;-88
2020/12/19 00:21:21;;;;;;;29.42;15.13;;;5.30;95.30;;;;;;4980012;28;20031;-88
2020/12/19 00:23:47;;;;;;;26.52;14.73;;;5.30;95.30;;;;;;4992075;28;20097;-88
2020/12/19 00:26:12;;;;;;;26.60;14.75;;;5.30;95.30;;;;;;4993164;28;20054;-88
2020/12/19 00:28:39;;;;;;;28.55;15.10;;;5.30;95.70;;;;;;4984834;28;20044;-88
2020/12/19 00:31:04;;;;;;;31.33;16.83;;;5.30;95.40;;;;;;4980695;28;20487;-88
2020/12/19 00:33:30;;;;;;;26.75;15.52;;;5.20;95.40;;;;;;4994656;28;20054;-88
2020/12/19 00:35:55;;;;;;;30.35;17.58;;;5.20;95.40;;;;;;4999171;28;20026;-90
2020/12/19 00:38:22;;;;;;;46.92;24.30;;;5.20;95.50;;;;;;4986178;28;20027;-87
2020/12/19 00:40:47;;;;;;;34.97;18.17;;;5.30;95.50;;;;;;4998789;28;20505;-88
2020/12/19 00:43:13;;;;;;;33.03;19.08;;;5.20;95.50;;;;;;4999003;28;20058;-88
2020/12/19 00:45:38;;;;;;;31.08;18.42;;;5.30;95.50;;;;;;4985523;28;20125;-88
2020/12/19 00:48:04;;;;;;;31.95;17.77;;;5.20;95.50;;;;;;4992145;28;20399;-88
2020/12/19 00:50:29;;;;;;;32.45;18.40;;;5.20;95.50;;;;;;4988497;28;20038;-88
2020/12/19 00:52:55;;;;;;;30.10;17.77;;;5.20;95.50;;;;;;4998101;28;20369;-89
2020/12/19 00:55:21;;;;;;;34.95;17.88;;;5.20;95.60;;;;;;4999417;28;20384;-88
2020/12/19 00:57:46;;;;;;;31.95;18.17;;;5.20;95.60;;;;;;4998581;28;20037;-87
2020/12/19 01:00:12;;;;;;;34.90;18.55;;;5.20;95.70;;;;;;5005104;28;20031;-88
2020/12/19 01:02:38;;;;;;;32.03;18.58;;;5.20;95.70;;;;;;4990878;28;20040;-88
2020/12/19 01:05:09;;;;;;;29.15;17.00;;;5.30;95.70;;;;;;4989032;28;20042;-88
2020/12/19 01:07:39;;;;;;;34.53;19.38;;;5.30;95.70;;;;;;4999694;28;20077;-88
2020/12/19 01:10:07;;;;;;;37.17;19.52;;;5.30;95.70;;;;;;4988550;28;20065;-88
2020/12/19 01:12:33;;;;;;;34.75;19.27;;;5.30;95.70;;;;;;4999262;28;20057;-88
2020/12/19 01:14:59;;;;;;;37.60;19.52;;;5.30;95.80;;;;;;4990481;28;20065;-89
2020/12/19 01:17:24;;;;;;;30.92;19.20;;;5.30;95.70;;;;;;4980646;28;20483;-88
2020/12/19 01:19:50;;;;;;;33.05;17.23;;;5.30;95.70;;;;;;4983448;28;20432;-88
2020/12/19 01:22:15;;;;;;;32.17;18.92;;;5.30;95.70;;;;;;4996741;28;20053;-87
2020/12/19 01:24:41;;;;;;;36.13;20.42;;;5.30;95.80;;;;;;4989403;28;20491;-88
2020/12/19 01:27:07;;;;;;;33.53;19.30;;;5.30;95.80;;;;;;4995463;28;20022;-87
2020/12/19 01:29:33;;;;;;;31.00;18.30;;;5.30;95.70;;;;;;4996247;28;20030;-88
2020/12/19 01:31:58;;;;;;;32.15;18.73;;;5.30;95.70;;;;;;4989371;28;20475;-88
2020/12/19 01:34:24;;;;;;;34.58;19.35;;;5.30;95.80;;;;;;4987460;28;20110;-88
2020/12/19 01:36:49;;;;;;;35.17;19.58;;;5.30;95.80;;;;;;4986377;28;20058;-87
2020/12/19 01:39:15;;;;;;;33.70;18.90;;;5.30;95.80;;;;;;4975791;28;20034;-88
2020/12/19 01:41:40;;;;;;;30.88;19.05;;;5.30;95.80;;;;;;4985166;28;20495;-87
2020/12/19 01:44:06;;;;;;;35.40;18.52;;;5.30;95.80;;;;;;4993857;28;20050;-87
2020/12/19 01:46:31;;;;;;;32.50;18.95;;;5.30;95.70;;;;;;4994188;28;20488;-88
2020/12/19 01:48:58;;;;;;;32.88;18.77;;;5.30;95.80;;;;;;4994981;28;20486;-88
2020/12/19 01:51:26;;;;;;;35.25;19.45;;;5.30;95.80;;;;;;4987590;28;20027;-87
2020/12/19 01:53:52;;;;;;;36.63;20.75;;;5.30;95.80;;;;;;4984324;28;20030;-87
2020/12/19 01:56:39;;;;;;;34.30;19.02;;;5.30;95.90;;;;;;4977316;28;20548;-87
2020/12/19 01:59:06;;;;;;;35.40;19.92;;;5.30;95.80;;;;;;4985353;28;20029;-87
2020/12/19 02:01:34;;;;;;;32.22;18.58;;;5.30;95.90;;;;;;4995446;28;20027;-88
2020/12/19 02:03:59;;;;;;;33.47;18.90;;;5.30;95.80;;;;;;4994430;28;20034;-87
2020/12/19 02:06:27;;;;;;;37.90;19.65;;;5.30;95.90;;;;;;4983528;28;20502;-88
2020/12/19 02:08:53;;;;;;;32.47;18.48;;;5.30;95.90;;;;;;4988280;28;20030;-88
2020/12/19 02:11:21;;;;;;;37.83;19.88;;;5.30;95.90;;;;;;4995986;28;20427;-87
2020/12/19 02:13:47;;;;;;;33.53;19.65;;;5.30;95.90;;;;;;4991628;28;20364;-88
2020/12/19 02:16:19;;;;;;;37.13;19.95;;;5.20;95.90;;;;;;4987978;28;20038;-88
2020/12/19 02:18:45;;;;;;;;;;;5.20;95.90;;;;;;4984261;28;20050;-87
2020/12/19 02:21:11;;;;;;;37.80;19.17;;;5.20;95.80;;;;;;4995243;28;20023;-88
2020/12/19 02:23:37;;;;;;;35.78;20.00;;;5.20;95.90;;;;;;4990706;28;20039;-88
2020/12/19 02:26:02;;;;;;;38.05;20.25;;;5.20;95.90;;;;;;4984197;28;20022;-88
2020/12/19 02:28:28;;;;;;;34.70;20.05;;;5.10;95.90;;;;;;4990267;28;20066;-88
2020/12/19 02:30:53;;;;;;;38.80;20.63;;;5.20;96.00;;;;;;4994827;28;20031;-87
2020/12/19 02:33:19;;;;;;;37.28;20.23;;;5.20;96.00;;;;;;4986000;28;20027;-87
2020/12/19 02:35:44;;;;;;;35.65;19.73;;;5.10;95.90;;;;;;4987863;28;20026;-87
2020/12/19 02:38:10;;;;;;;39.00;21.33;;;5.10;96.00;;;;;;4981576;28;20033;-86
2020/12/19 02:40:35;;;;;;;38.15;21.05;;;5.10;96.00;;;;;;4994006;28;20383;-87
2020/12/19 02:43:00;;;;;;;38.83;20.63;;;5.10;96.00;;;;;;4994048;28;20046;-88
2020/12/19 02:45:26;;;;;;;37.35;21.00;;;5.10;96.00;;;;;;4989496;28;20051;-87
2020/12/19 02:48:29;;;;;;;40.60;21.23;;;5.00;96.00;;;;;;4980405;28;20050;-87
2020/12/19 02:50:54;;;;;;;38.10;21.42;;;5.10;96.00;;;;;;4982255;28;20040;-88
2020/12/19 02:53:20;;;;;;;40.35;21.75;;;5.00;96.10;;;;;;4986388;28;20039;-88
2020/12/19 02:55:45;;;;;;;43.92;22.67;;;5.00;96.10;;;;;;4989854;28;20022;-87
2020/12/19 02:58:11;;;;;;;45.22;22.80;;;5.00;96.10;;;;;;4983604;28;20376;-87
2020/12/19 03:00:36;;;;;;;40.08;23.27;;;5.00;96.10;;;;;;4994725;28;20026;-88
2020/12/19 03:03:02;;;;;;;46.72;24.77;;;5.00;96.20;;;;;;4993672;28;20029;-88
2020/12/19 03:05:27;;;;;;;39.63;20.58;;;5.00;96.20;;;;;;4990855;28;20041;-87
2020/12/19 03:07:53;;;;;;;44.05;23.48;;;5.00;96.20;;;;;;4984728;28;20042;-88
2020/12/19 03:10:18;;;;;;;42.65;22.83;;;5.00;96.20;;;;;;4983577;28;20030;-87
2020/12/19 03:12:44;;;;;;;41.58;23.13;;;5.00;96.20;;;;;;4988458;28;20034;-87
2020/12/19 03:15:09;;;;;;;45.60;24.15;;;5.00;96.20;;;;;;4975446;28;20026;-87
2020/12/19 03:17:35;;;;;;;44.42;24.75;;;5.00;96.20;;;;;;4990638;28;20042;-88
2020/12/19 03:20:00;;;;;;;49.20;24.00;;;5.00;96.30;;;;;;4981606;28;20038;-87
2020/12/19 03:22:26;;;;;;;46.67;24.40;;;5.00;96.20;;;;;;4988861;28;20022;-87
2020/12/19 03:24:51;;;;;;;46.55;23.65;;;5.00;96.20;;;;;;4992502;28;20046;-88
2020/12/19 03:27:17;;;;;;;43.17;23.83;;;5.00;96.20;;;;;;4994651;28;20054;-87
2020/12/19 03:29:42;;;;;;;43.95;23.38;;;4.90;96.30;;;;;;4993957;28;20100;-87
2020/12/19 03:32:08;;;;;;;48.35;24.58;;;5.00;96.30;;;;;;4986450;28;20041;-87
2020/12/19 03:34:33;;;;;;;47.90;25.05;;;4.90;96.30;;;;;;4993181;28;20430;-88
2020/12/19 03:37:00;;;;;;;46.05;24.17;;;4.90;96.30;;;;;;4976077;28;20427;-88
2020/12/19 03:39:25;;;;;;;50.50;27.08;;;4.90;96.30;;;;;;4991705;28;20030;-88
2020/12/19 03:41:51;;;;;;;45.08;22.92;;;4.90;96.30;;;;;;4991114;28;20121;-87
2020/12/19 03:44:16;;;;;;;45.05;24.75;;;4.90;96.40;;;;;;4985269;28;20089;-88
2020/12/19 03:46:42;;;;;;;50.70;25.52;;;4.90;96.40;;;;;;4989917;28;20037;-88
2020/12/19 03:49:08;;;;;;;45.33;23.98;;;4.90;96.30;;;;;;4977301;28;20078;-88
2020/12/19 03:51:34;;;;;;;49.20;26.25;;;4.90;96.40;;;;;;4990648;28;20019;-88
2020/12/19 03:54:00;;;;;;;47.50;25.60;;;4.80;96.40;;;;;;4978866;28;20071;-88
2020/12/19 03:56:25;;;;;;;54.80;25.73;;;4.90;96.50;;;;;;4987618;28;20026;-87
2020/12/19 03:58:51;;;;;;;46.50;24.60;;;4.90;96.50;;;;;;4992764;28;20037;-88
2020/12/19 04:01:16;;;;;;;44.83;24.65;;;4.90;96.50;;;;;;4993171;28;20494;-87
2020/12/19 04:03:42;;;;;;;41.88;23.42;;;4.90;96.50;;;;;;4992995;28;20113;-88
2020/12/19 04:06:07;;;;;;;47.53;24.40;;;4.90;96.40;;;;;;4992955;28;20058;-88
2020/12/19 04:08:33;;;;;;;45.38;22.92;;;4.90;96.50;;;;;;4992418;28;20037;-89
2020/12/19 04:10:59;;;;;;;43.80;23.73;;;4.90;96.50;;;;;;5009231;28;20041;-88
2020/12/19 04:13:25;;;;;;;43.50;23.30;;;4.90;96.50;;;;;;4992327;28;20117;-88
2020/12/19 04:15:50;;;;;;;50.28;24.42;;;4.90;96.50;;;;;;4984918;28;20062;-88
2020/12/19 04:18:15;;;;;;;41.83;23.13;;;4.90;96.50;;;;;;4999262;28;20138;-88
2020/12/19 04:20:41;;;;;;;43.85;21.60;;;4.90;96.50;;;;;;4981310;28;20121;-88
2020/12/19 04:23:07;;;;;;;48.33;25.35;;;4.90;96.60;;;;;;4992466;28;20030;-88
2020/12/19 04:25:32;;;;;;;47.67;25.40;;;4.90;96.60;;;;;;4990427;28;20076;-89
2020/12/19 04:27:58;;;;;;;46.05;24.98;;;4.90;96.60;;;;;;4978176;28;20451;-89
2020/12/19 04:30:23;;;;;;;51.75;26.25;;;4.90;96.50;;;;;;5011932;28;20030;-88
2020/12/19 04:32:49;;;;;;;47.55;24.55;;;4.90;96.50;;;;;;4988639;28;20023;-88
2020/12/19 04:35:14;;;;;;;50.20;25.05;;;4.90;96.60;;;;;;4993069;28;20112;-88
2020/12/19 04:37:40;;;;;;;48.85;26.15;;;4.90;96.60;;;;;;4992153;28;20368;-88
2020/12/19 04:40:05;;;;;;;48.72;25.80;;;4.90;96.60;;;;;;4990910;28;20022;-88
2020/12/19 04:42:33;;;;;;;44.88;24.10;;;4.90;96.60;;;;;;4991610;28;20038;-87
2020/12/19 04:44:58;;;;;;;47.80;24.30;;;4.90;96.60;;;;;;4990435;28;20427;-88
2020/12/19 04:47:24;;;;;;;55.83;25.20;;;4.90;96.70;;;;;;4991608;28;20030;-88
2020/12/19 04:49:50;;;;;;;42.40;23.98;;;4.90;96.60;;;;;;4988572;28;20050;-88
2020/12/19 04:52:16;;;;;;;47.20;25.70;;;4.90;96.70;;;;;;4990742;28;20022;-89
2020/12/19 04:54:42;;;;;;;45.72;24.13;;;4.90;96.70;;;;;;4988355;28;20023;-88
2020/12/19 04:57:16;;;;;;;42.15;23.75;;;4.90;96.70;;;;;;4993467;28;20038;-88
2020/12/19 04:59:42;;;;;;;45.55;23.50;;;5.00;96.70;;;;;;4994484;28;20037;-88
2020/12/19 05:02:07;;;;;;;44.90;24.67;;;5.00;96.60;;;;;;4977499;28;20301;-88
2020/12/19 05:04:37;;;;;;;45.63;24.27;;;5.00;96.60;;;;;;4977249;28;20066;-88
2020/12/19 05:07:06;;;;;;;44.58;24.58;;;4.90;96.70;;;;;;4977261;28;20033;-88
2020/12/19 05:09:39;;;;;;;45.05;24.48;;;5.00;96.70;;;;;;4992575;28;20045;-88
2020/12/19 05:12:06;;;;;;;57.58;31.20;;;5.00;96.70;;;;;;4987158;28;20129;-88
2020/12/19 05:14:32;;;;;;;47.67;25.70;;;5.00;96.60;;;;;;4981230;28;20034;-88
2020/12/19 05:16:59;;;;;;;45.55;23.80;;;4.90;96.60;;;;;;4976902;28;20173;-89
2020/12/19 05:19:26;;;;;;;41.58;22.17;;;4.90;96.60;;;;;;4987906;28;20033;-88
2020/12/19 05:21:53;;;;;;;42.05;22.38;;;4.90;96.70;;;;;;4995662;28;20065;-89
2020/12/19 05:24:26;;;;;;;46.45;22.95;;;4.90;96.70;;;;;;4995765;28;20049;-88
2020/12/19 05:26:52;;;;;;;43.40;23.45;;;5.00;96.70;;;;;;4995951;28;20027;-89
2020/12/19 05:29:19;;;;;;;44.15;23.52;;;5.00;96.70;;;;;;5004709;28;20034;-88
2020/12/19 05:31:53;;;;;;;44.30;23.80;;;5.00;96.80;;;;;;4994908;28;20165;-88
2020/12/19 05:34:19;;;;;;;42.65;23.17;;;5.00;96.80;;;;;;4995831;28;20034;-89
2020/12/19 05:36:44;;;;;;;43.28;23.77;;;5.00;96.80;;;;;;5011801;28;20029;-88
2020/12/19 05:39:10;;;;;;;43.83;23.13;;;5.10;96.70;;;;;;4984448;28;20031;-89
2020/12/19 05:41:39;;;;;;;42.83;22.73;;;5.00;96.70;;;;;;4994337;28;20026;-89
2020/12/19 05:44:05;;;;;;;42.95;22.75;;;5.10;96.70;;;;;;4988473;28;20046;-88
2020/12/19 05:46:34;;;;;;;43.63;23.48;;;5.00;96.70;;;;;;4989623;28;20368;-89
2020/12/19 05:49:02;;;;;;;46.45;22.98;;;5.00;96.70;;;;;;4989202;28;20117;-89
2020/12/19 05:51:29;;;;;;;44.40;23.30;;;5.10;96.80;;;;;;4983320;28;20050;-89
2020/12/19 05:54:06;;;;;;;42.85;22.88;;;5.00;96.70;;;;;;4993902;28;20073;-89
2020/12/19 05:56:43;;;;;;;45.25;22.83;;;5.00;96.70;;;;;;4988852;28;20038;-89
2020/12/19 05:59:11;;;;;;;42.60;20.98;;;5.00;96.70;;;;;;4977018;28;20031;-88
2020/12/19 06:01:41;;;;;;;44.58;21.33;;;5.00;96.70;;;;;;4991963;28;20090;-89
2020/12/19 06:04:08;;;;;;;47.72;22.60;;;5.00;96.70;;;;;;4984225;28;20039;-89
2020/12/19 06:06:38;;;;;;;42.80;22.45;;;5.00;96.70;;;;;;4988250;28;20022;-89
2020/12/19 06:09:03;;;;;;;45.13;21.70;;;5.00;96.80;;;;;;4994361;28;20372;-89
2020/12/19 06:11:34;;;;;;;39.53;21.48;;;5.00;96.80;;;;;;4994964;28;20053;-89
2020/12/19 06:14:06;;;;;;;41.72;20.95;;;5.00;97.10;;;;;;4990392;28;20026;-89
2020/12/19 06:16:32;;;;;;;39.75;20.92;;;5.00;96.80;;;;;;4994672;28;20030;-89
2020/12/19 06:19:19;;;;;;;40.47;21.60;;;5.00;96.80;;;;;;4981689;28;20014;-89
2020/12/19 06:21:50;;;;;;;41.22;21.27;;;5.00;96.80;;;;;;4975695;28;20038;-89
2020/12/19 06:24:38;;;;;;;45.35;22.00;;;5.10;96.80;;;;;;4975733;28;20039;-89
2020/12/19 06:27:08;;;;;;;42.78;20.13;;;5.10;96.80;;;;;;4975844;28;20035;-90
2020/12/19 06:29:36;;;;;;;34.13;19.75;;;5.00;96.70;;;;;;4977066;28;20030;-90
2020/12/19 06:32:02;;;;;;;40.80;20.67;;;5.10;96.70;;;;;;4982849;28;20046;-89
2020/12/19 06:34:28;;;;;;;40.45;20.65;;;5.10;96.70;;;;;;4981863;28;20027;-89
2020/12/19 06:36:56;;;;;;;37.05;19.83;;;5.00;96.70;;;;;;4977836;28;20038;-89
2020/12/19 06:39:21;;;;;;;42.33;21.33;;;5.00;96.70;;;;;;4975322;28;20027;-89
2020/12/19 06:41:52;;;;;;;36.80;18.92;;;5.10;96.70;;;;;;4975272;28;20023;-88
2020/12/19 06:44:25;;;;;;;32.97;18.00;;;5.10;96.70;;;;;;4974894;28;20060;-89
2020/12/19 06:46:52;;;;;;;34.53;17.25;;;5.00;96.80;;;;;;4976245;28;20023;-89
2020/12/19 06:49:24;;;;;;;34.28;19.02;;;5.10;96.80;;;;;;4986737;28;20034;-89
2020/12/19 06:52:08;;;;;;;35.77;18.57;;;5.10;96.80;;;;;;4995182;28;20058;-88
2020/12/19 06:54:42;;;;;;;34.00;18.13;;;5.20;96.70;;;;;;4993829;28;20294;-88
2020/12/19 06:57:25;;;;;;;36.75;18.98;;;5.10;96.70;;;;;;4990775;28;20022;-88
2020/12/19 06:59:51;;;;;;;;;;;5.20;96.80;;;;;;4978092;28;20030;-89
2020/12/19 07:02:27;;;;;;;34.20;17.80;;;5.20;96.70;;;;;;5005863;28;20394;-89
2020/12/19 07:04:53;;;;;;;34.15;17.95;;;5.20;96.80;;;;;;4991416;28;20034;-88
2020/12/19 07:07:23;;;;;;;30.17;17.08;;;5.20;96.60;;;;;;4990285;28;20129;-89
2020/12/19 07:10:00;;;;;;;33.40;17.83;;;5.20;96.60;;;;;;4991113;28;20085;-89
2020/12/19 07:12:28;;;;;;;36.17;17.33;;;5.20;96.60;;;;;;4987614;28;20034;-88
2020/12/19 07:14:54;;;;;;;32.53;18.17;;;5.20;96.60;;;;;;4993065;28;20022;-89
2020/12/19 07:17:20;;;;;;;29.65;17.00;;;5.20;96.60;;;;;;4981080;28;20402;-88
2020/12/19 07:19:47;;;;;;;31.95;18.60;;;5.30;96.60;;;;;;4986265;28;20471;-88
2020/12/19 07:22:13;;;;;;;27.98;16.90;;;5.30;96.60;;;;;;4989199;28;20034;-88
2020/12/19 07:24:39;;;;;;;32.28;17.08;;;5.30;96.60;;;;;;4978574;28;20061;-88
2020/12/19 07:27:04;;;;;;;34.47;19.30;;;5.30;96.60;;;;;;4991442;28;20034;-88
2020/12/19 07:29:30;;;;;;;30.77;16.33;;;5.30;96.60;;;;;;4985769;28;20037;-89
2020/12/19 07:31:59;;;;;;;31.92;17.10;;;5.40;96.60;;;;;;4993274;28;20049;-89
2020/12/19 07:34:25;;;;;;;29.45;16.80;;;5.40;96.60;;;;;;4982371;28;20054;-89
2020/12/19 07:36:53;;;;;;;29.33;16.70;;;5.40;96.50;;;;;;4982305;28;20046;-89
2020/12/19 07:39:20;;;;;;;27.42;15.77;;;5.40;96.50;;;;;;4988429;28;20034;-88
2020/12/19 07:42:03;;;;;;;31.90;18.05;;;5.40;96.50;;;;;;4993621;28;20018;-88
2020/12/19 07:44:28;;;;;;;31.63;16.50;;;5.40;96.50;;;;;;4991895;28;20054;-88
2020/12/19 07:46:55;;;;;;;30.55;17.83;;;5.40;96.50;;;;;;4987666;28;20033;-89
2020/12/19 07:49:25;;;;;;;35.42;17.83;;;5.40;96.40;;;;;;4982536;28;20042;-90
2020/12/19 07:51:51;;;;;;;27.30;16.50;;;5.40;96.50;;;;;;4989657;28;20031;-89
2020/12/19 07:54:16;;;;;;;34.17;18.45;;;5.40;96.50;;;;;;4978243;28;20038;-89
2020/12/19 07:56:43;;;;;;;31.25;17.23;;;5.40;96.50;;;;;;4981104;28;20031;-90
2020/12/19 07:59:10;;;;;;;35.38;18.20;;;5.40;96.40;;;;;;4992392;28;20080;-88
2020/12/19 08:01:39;;;;;;;33.53;18.17;;;5.40;96.50;;;;;;4992193;28;20054;-89
2020/12/19 08:04:05;;;;;;;35.58;18.83;;;5.40;96.50;;;;;;4992262;28;20038;-88
2020/12/19 08:06:47;;;;;;;34.00;18.45;;;5.50;96.60;;;;;;4992614;28;20023;-88
2020/12/19 08:09:22;;;;;;;36.42;18.63;;;5.60;96.50;;;;;;4989423;28;20080;-88
2020/12/19 08:11:49;;;;;;;33.17;18.65;;;5.60;96.50;;;;;;4993865;28;20023;-89
2020/12/19 08:14:20;;;;;;;29.17;17.17;;;5.70;96.50;;;;;;4986093;28;20078;-88
2020/12/19 08:16:46;;;;;;;34.00;18.92;;;5.70;96.40;;;;;;4973773;28;20026;-88
2020/12/19 08:19:17;;;;;;;26.83;16.73;;;5.70;96.40;;;;;;4973957;28;20106;-88
2020/12/19 08:21:46;;;;;;;30.40;17.23;;;5.70;96.40;;;;;;4992510;28;20026;-89
2020/12/19 08:24:12;;;;;;;32.67;18.65;;;5.80;96.50;;;;;;4982519;28;20034;-87
2020/12/19 08:26:37;;;;;;;37.47;17.85;;;5.90;96.50;;;;;;4991108;28;20073;-89
2020/12/19 08:29:07;;;;;;;29.48;16.70;;;6.00;96.40;;;;;;4992120;28;20030;-89
2020/12/19 08:31:35;;;;;;;32.22;17.95;;;6.00;96.40;;;;;;4994871;28;20026;-88
2020/12/19 08:34:04;;;;;;;30.73;18.10;;;6.10;96.30;;;;;;4996575;28;20034;-89
2020/12/19 08:36:29;;;;;;;30.70;19.27;;;6.20;96.30;;;;;;4995107;28;20676;-90
2020/12/19 08:39:14;;;;;;;31.90;18.10;;;6.20;96.30;;;;;;5001307;28;20041;-89
2020/12/19 08:41:40;;;;;;;34.28;18.75;;;6.30;96.20;;;;;;4996438;28;20022;-87
2020/12/19 08:44:05;;;;;;;29.27;18.08;;;6.40;96.20;;;;;;4998078;28;20494;-89
2020/12/19 08:46:31;;;;;;;27.73;16.80;;;6.40;96.20;;;;;;4997245;28;20033;-88
2020/12/19 08:49:03;;;;;;;30.42;17.98;;;6.50;96.20;;;;;;4996228;28;20041;-88
2020/12/19 08:51:29;;;;;;;28.23;16.55;;;6.50;96.10;;;;;;4997426;28;20033;-89
2020/12/19 08:54:10;;;;;;;28.20;17.52;;;6.60;96.00;;;;;;4996235;28;20042;-89
2020/12/19 08:56:36;;;;;;;29.85;18.25;;;6.70;96.00;;;;;;4997166;28;20070;-88
2020/12/19 08:59:01;;;;;;;27.45;17.27;;;6.70;95.90;;;;;;4993324;28;20066;-88
2020/12/19 09:01:30;;;;;;;30.33;18.02;;;6.80;95.90;;;;;;4993961;28;20089;-86
2020/12/19 09:04:07;;;;;;;29.55;18.25;;;6.80;95.90;;;;;;4997085;28;20034;-87
2020/12/19 09:06:48;;;;;;;31.73;18.63;;;6.90;95.90;;;;;;4996237;28;20023;-88
2020/12/19 09:09:18;;;;;;;27.83;17.85;;;6.90;95.80;;;;;;4993392;28;20050;-88
2020/12/19 09:11:44;;;;;;;29.38;17.75;;;7.00;95.80;;;;;;4978934;28;20078;-88
2020/12/19 09:14:11;;;;;;;25.98;17.35;;;7.10;95.80;;;;;;4983813;28;20030;-88
2020/12/19 09:16:51;;;;;;;27.65;16.88;;;7.10;95.70;;;;;;4997435;28;20026;-87
2020/12/19 09:19:18;;;;;;;24.13;16.52;;;7.20;95.70;;;;;;4996936;28;20019;-88
2020/12/19 09:21:58;;;;;;;23.65;16.58;;;7.20;95.60;;;;;;4996374;28;20088;-87
2020/12/19 09:24:24;;;;;;;29.73;16.60;;;7.30;95.60;;;;;;4980429;28;20369;-88
2020/12/19 09:26:49;;;;;;;28.52;17.55;;;7.40;95.60;;;;;;4995864;28;20061;-87
2020/12/19 09:29:15;;;;;;;27.85;16.35;;;7.50;95.50;;;;;;4992597;28;20027;-88
2020/12/19 09:31:41;;;;;;;27.08;17.08;;;7.60;95.40;;;;;;4993807;28;20030;-87
2020/12/19 09:34:07;;;;;;;28.02;15.77;;;7.70;95.40;;;;;;4993869;28;20356;-86
2020/12/19 09:36:32;;;;;;;31.50;17.17;;;7.70;95.30;;;;;;4990843;28;20031;-87
2020/12/19 09:38:58;;;;;;;31.10;17.15;;;7.80;95.30;;;;;;4989519;28;20030;-88
2020/12/19 09:41:23;;;;;;;35.67;21.00;;;7.90;95.20;;;;;;4985935;28;20026;-87
2020/12/19 09:43:49;;;;;;;25.45;16.67;;;8.00;95.20;;;;;;4994149;28;20050;-87
2020/12/19 09:46:14;;;;;;;27.13;16.00;;;8.10;95.10;;;;;;5004492;28;20030;-87
2020/12/19 09:48:40;;;;;;;26.42;15.90;;;8.20;95.10;;;;;;4976382;28;20031;-88
2020/12/19 09:51:06;;;;;;;25.90;16.83;;;8.30;95.00;;;;;;4979618;28;20029;-88
2020/12/19 09:53:31;;;;;;;26.95;16.17;;;8.40;95.00;;;;;;4995608;28;20117;-88
2020/12/19 09:55:57;;;;;;;26.90;16.27;;;8.50;94.90;;;;;;4996556;28;20026;-88
2020/12/19 09:58:22;;;;;;;24.40;14.88;;;8.60;94.70;;;;;;4991470;28;20031;-88
2020/12/19 10:00:48;;;;;;;20.95;14.18;;;8.70;94.60;;;;;;4998542;28;20026;-88
2020/12/19 10:03:13;;;;;;;24.80;15.95;;;8.70;94.60;;;;;;5015357;28;20034;-88
2020/12/19 10:05:39;;;;;;;24.73;15.63;;;8.80;94.60;;;;;;5013251;28;20030;-88
2020/12/19 10:08:04;;;;;;;24.45;13.82;;;8.90;94.50;;;;;;4994845;28;20114;-88
2020/12/19 10:10:30;;;;;;;20.77;14.02;;;8.90;94.50;;;;;;4994088;28;20122;-85
2020/12/19 10:12:55;;;;;;;19.52;13.60;;;9.00;94.40;;;;;;5011932;28;20041;-87
2020/12/19 10:15:21;;;;;;;20.50;14.43;;;9.10;94.40;;;;;;4992682;28;20027;-88
2020/12/19 10:17:46;;;;;;;22.55;15.02;;;9.10;94.20;;;;;;4992915;28;20076;-87
2020/12/19 10:20:12;;;;;;;17.98;12.75;;;9.20;94.20;;;;;;4994677;28;20088;-87
2020/12/19 10:22:38;;;;;;;20.67;13.70;;;9.20;94.20;;;;;;4995476;28;20188;-87
2020/12/19 10:25:03;;;;;;;24.73;14.55;;;9.30;94.10;;;;;;4995387;28;20089;-88
2020/12/19 10:27:29;;;;;;;21.45;13.82;;;9.40;94.00;;;;;;4995621;28;20146;-86
2020/12/19 10:29:55;;;;;;;21.83;13.57;;;9.50;93.90;;;;;;4994988;28;20031;-87
2020/12/19 10:32:21;;;;;;;22.80;13.63;;;9.50;93.70;;;;;;4992056;28;20034;-87
2020/12/19 10:34:47;;;;;;;20.65;13.75;;;9.50;93.70;;;;;;4986677;28;20438;-87
2020/12/19 10:37:12;;;;;;;18.17;13.10;;;9.60;93.60;;;;;;4975898;28;20069;-88
2020/12/19 10:39:37;;;;;;;24.77;14.63;;;9.60;93.60;;;;;;4976097;28;20158;-87
2020/12/19 10:42:03;;;;;;;19.70;13.02;;;9.60;93.50;;;;;;4987652;28;20387;-88
2020/12/19 10:44:29;;;;;;;20.27;13.85;;;9.70;93.50;;;;;;4993783;28;20597;-87
2020/12/19 10:46:57;;;;;;;16.65;12.32;;;9.80;93.40;;;;;;4994674;28;20393;-88
2020/12/19 10:49:23;;;;;;;18.23;13.35;;;9.80;93.30;;;;;;4994492;28;20030;-88
2020/12/19 10:51:48;;;;;;;19.17;12.73;;;9.90;93.20;;;;;;4988338;28;20044;-88
2020/12/19 10:54:14;;;;;;;20.38;12.77;;;9.90;93.10;;;;;;4989743;28;20026;-88
2020/12/19 10:56:39;;;;;;;19.92;13.30;;;9.90;93.00;;;;;;4989209;28;20022;-87
2020/12/19 10:59:05;;;;;;;23.58;13.68;;;10.00;93.00;;;;;;4994536;28;20041;-87
2020/12/19 11:01:30;;;;;;;20.27;13.00;;;10.00;93.00;;;;;;4990054;28;20498;-87
2020/12/19 11:03:56;;;;;;;18.17;12.93;;;10.00;92.90;;;;;;5003380;28;20510;-88
2020/12/19 11:06:26;;;;;;;17.23;13.02;;;10.10;92.80;;;;;;4983806;28;20026;-87
2020/12/19 11:08:53;;;;;;;19.27;14.02;;;10.10;92.70;;;;;;4989903;28;20030;-87
2020/12/19 11:11:19;;;;;;;19.25;12.55;;;10.20;92.70;;;;;;4993716;28;20045;-87
2020/12/19 11:13:46;;;;;;;18.42;11.75;;;10.20;92.70;;;;;;4994749;28;20026;-88
2020/12/19 11:16:25;;;;;;;19.15;13.63;;;10.20;92.60;;;;;;4981865;28;20035;-87
2020/12/19 11:18:51;;;;;;;20.05;13.32;;;10.40;92.50;;;;;;4986222;28;20121;-87
2020/12/19 11:21:17;;;;;;;18.92;12.88;;;10.40;92.50;;;;;;4993883;28;20113;-87
2020/12/19 11:23:43;;;;;;;19.63;12.60;;;10.50;92.40;;;;;;4987193;28;20034;-87
2020/12/19 11:26:08;;;;;;;18.85;12.68;;;10.60;92.30;;;;;;4992524;28;20065;-87
2020/12/19 11:28:34;;;;;;;14.75;10.77;;;10.70;92.20;;;;;;5007086;28;20023;-86
2020/12/19 11:31:00;;;;;;;18.30;12.63;;;10.70;92.10;;;;;;4991022;28;20037;-88
2020/12/19 11:33:25;;;;;;;19.58;12.18;;;10.80;92.00;;;;;;4987826;28;20450;-88
2020/12/19 11:35:51;;;;;;;18.73;10.88;;;10.90;91.90;;;;;;4989644;28;20036;-87
2020/12/19 11:38:16;;;;;;;17.20;10.35;;;11.00;92.00;;;;;;4982413;28;20026;-86
2020/12/19 11:40:42;;;;;;;15.30;9.55;;;11.00;91.50;;;;;;4990825;28;20062;-87
2020/12/19 11:43:07;;;;;;;13.73;9.43;;;11.00;91.30;;;;;;4990833;28;20030;-86
2020/12/19 11:45:33;;;;;;;13.38;8.63;;;11.10;91.10;;;;;;4988581;28;20042;-87
2020/12/19 11:47:59;;;;;;;14.00;9.25;;;11.20;90.90;;;;;;4984575;28;20127;-88
2020/12/19 11:50:24;;;;;;;14.40;8.77;;;11.30;90.80;;;;;;4992129;28;20046;-89
2020/12/19 11:52:50;;;;;;;16.55;9.02;;;11.40;91.10;;;;;;4996060;28;20113;-88
2020/12/19 11:55:16;;;;;;;13.52;9.13;;;11.40;90.60;;;;;;4976431;28;20034;-88
2020/12/19 11:57:41;;;;;;;10.23;7.63;;;11.50;90.50;;;;;;4981452;28;20027;-87
2020/12/19 12:00:07;;;;;;;13.13;8.25;;;11.50;90.30;;;;;;4993515;28;20023;-88
2020/12/19 12:02:33;;;;;;;11.65;7.32;;;11.50;90.10;;;;;;4993128;28;20040;-88
2020/12/19 12:04:59;;;;;;;10.82;7.45;;;11.50;90.00;;;;;;5004680;28;20038;-88
2020/12/19 12:07:24;;;;;;;10.07;7.25;;;11.50;89.50;;;;;;4997388;28;20118;-88
2020/12/19 12:09:50;;;;;;;12.50;7.97;;;11.50;89.70;;;;;;4973589;28;20026;-87
2020/12/19 12:12:15;;;;;;;13.30;8.00;;;11.50;89.50;;;;;;4979131;28;20027;-88
2020/12/19 12:14:41;;;;;;;10.35;7.82;;;11.50;89.50;;;;;;4981251;28;20041;-88
2020/12/19 12:17:07;;;;;;;10.48;7.80;;;11.50;89.50;;;;;;4986917;28;20042;-88
2020/12/19 12:19:32;;;;;;;12.10;6.85;;;11.50;89.70;;;;;;5013966;28;20471;-87
2020/12/19 12:21:58;;;;;;;9.60;6.30;;;11.50;89.90;;;;;;4995142;28;20019;-87
2020/12/19 12:24:24;;;;;;;11.32;6.47;;;11.40;89.80;;;;;;4973546;28;20054;-87
2020/12/19 12:26:49;;;;;;;9.35;6.13;;;11.50;89.80;;;;;;4989396;28;20499;-87
2020/12/19 12:29:15;;;;;;;7.18;4.88;;;11.40;89.50;;;;;;4982857;28;20076;-87
2020/12/19 12:31:41;;;;;;;8.02;4.93;;;11.50;89.40;;;;;;4988570;28;20023;-87
2020/12/19 12:34:07;;;;;;;9.70;4.53;;;11.60;89.10;;;;;;4989323;28;20029;-87
2020/12/19 12:36:33;;;;;;;7.40;4.47;;;11.60;88.70;;;;;;4992616;28;20030;-87
2020/12/19 12:38:59;;;;;;;7.38;4.00;;;11.70;88.70;;;;;;4992014;28;20062;-87